Wells, Michigan
Current Conditions -  °F | °C
As of 2:55 PM on Friday 24 Oct 2014 (Local Time) from KESC Reporting Station
Overcast Overcast  
Wind Chill: 46°   Ceiling: 600
Heat Index: 48°   Visibility: 10mi
Dew Point: 45°   Wind: 6mph
Humidity: 87%   Direction: 190°S
Pressure: 29.92"   Gusts: NA
Location:  45.78°N, 87.08°W
Report Text: KESC 241855Z AUTO 19005KT 10SM OVC006 09/07 A2992 RMK AO1
Loading
Personal Weather Stations






























Interactive Weather Map
Tropical Storm Tracking
New forecast layout! Learn more

10-Day Weather Forecast

Advertisements
Track Severe Weather on mobile